createdAt,value
2019-03-19T00:01:10.157Z,99.90
2019-03-19T00:03:40.218Z,99.90
2019-03-19T00:06:10.293Z,99.90
2019-03-19T00:08:40.521Z,99.90
2019-03-19T00:11:10.681Z,99.90
2019-03-19T00:13:40.557Z,99.90
2019-03-19T00:16:10.547Z,99.90
2019-03-19T00:18:40.761Z,99.90
2019-03-19T00:21:10.550Z,99.90
2019-03-19T00:23:40.294Z,99.90
2019-03-19T00:26:10.101Z,99.90
2019-03-19T00:28:40.102Z,99.90
2019-03-19T00:31:09.947Z,99.90
2019-03-19T00:33:39.669Z,99.90
2019-03-19T00:36:09.413Z,99.90
2019-03-19T00:38:39.149Z,99.90
2019-03-19T00:41:08.896Z,99.90
2019-03-19T00:43:38.639Z,99.90
2019-03-19T00:46:08.445Z,99.90
2019-03-19T00:48:38.194Z,99.90
2019-03-19T00:51:09.157Z,99.90
2019-03-19T00:53:38.922Z,99.90
2019-03-19T00:56:08.905Z,99.90
2019-03-19T00:58:38.656Z,99.90
2019-03-19T01:01:08.532Z,99.90
2019-03-19T01:03:38.349Z,99.90
2019-03-19T01:06:08.075Z,99.90
2019-03-19T01:08:37.964Z,99.90
2019-03-19T01:11:07.696Z,99.90
2019-03-19T01:13:37.446Z,99.90
2019-03-19T01:16:07.502Z,99.90
2019-03-19T01:18:37.310Z,99.90
2019-03-19T01:21:07.040Z,99.90
2019-03-19T01:23:36.847Z,99.90
2019-03-19T01:26:06.568Z,99.90
2019-03-19T01:28:36.415Z,99.90
2019-03-19T01:31:06.157Z,99.90
2019-03-19T01:33:35.896Z,99.90
2019-03-19T01:36:05.717Z,99.90
2019-03-19T01:38:35.532Z,99.90
2019-03-19T01:41:05.409Z,99.90
2019-03-19T01:43:35.302Z,99.90
2019-03-19T01:46:05.195Z,99.90
2019-03-19T01:48:35.077Z,99.90
2019-03-19T01:51:05.005Z,99.90
2019-03-19T01:53:34.945Z,99.90
2019-03-19T01:56:05.718Z,99.90
2019-03-19T01:58:35.676Z,99.90
2019-03-19T02:01:05.684Z,99.90
2019-03-19T02:03:35.798Z,99.90
2019-03-19T02:06:05.773Z,99.90
2019-03-19T02:08:36.110Z,99.90
2019-03-19T02:11:05.925Z,99.90
2019-03-19T02:13:35.741Z,99.90
2019-03-19T02:16:05.621Z,99.90
2019-03-19T02:18:35.362Z,99.90
2019-03-19T02:21:05.258Z,99.90
2019-03-19T02:23:35.009Z,99.90
2019-03-19T02:26:15.593Z,99.90
2019-03-19T02:28:36.329Z,99.90
2019-03-19T02:31:06.078Z,99.90
2019-03-19T02:33:35.908Z,99.90
2019-03-19T02:36:05.714Z,99.90
2019-03-19T02:38:35.458Z,99.90
2019-03-19T02:41:05.287Z,99.90
2019-03-19T02:43:35.203Z,99.90
2019-03-19T02:46:05.124Z,99.90
2019-03-19T02:48:35.123Z,99.90
2019-03-19T02:51:06.263Z,99.90
2019-03-19T02:53:36.166Z,99.90
2019-03-19T02:56:06.122Z,99.90
2019-03-19T02:58:35.927Z,99.90
2019-03-19T03:01:05.734Z,99.90
2019-03-19T03:03:35.853Z,99.90
2019-03-19T03:06:05.821Z,99.90
2019-03-19T03:08:35.658Z,99.90
2019-03-19T03:11:05.643Z,99.90
2019-03-19T03:13:35.385Z,99.90
2019-03-19T03:16:05.543Z,99.90
2019-03-19T03:18:35.308Z,99.90
2019-03-19T03:21:05.146Z,99.90
2019-03-19T03:23:34.895Z,99.90
2019-03-19T03:26:04.777Z,99.90
2019-03-19T03:28:34.539Z,99.90
2019-03-19T03:31:04.357Z,99.90
2019-03-19T03:33:34.119Z,99.90
2019-03-19T03:36:04.080Z,99.90
2019-03-19T03:38:33.975Z,99.90
2019-03-19T03:41:03.795Z,99.90
2019-03-19T03:43:33.844Z,99.90
2019-03-19T03:46:03.749Z,99.90
2019-03-19T03:48:33.558Z,99.90
2019-03-19T03:51:03.397Z,99.90
2019-03-19T03:53:33.284Z,99.90
2019-03-19T03:56:03.118Z,99.90
2019-03-19T03:58:32.959Z,99.90
2019-03-19T04:01:02.858Z,99.90
2019-03-19T04:03:32.747Z,99.90
2019-03-19T04:06:02.575Z,99.90
2019-03-19T04:08:32.321Z,99.90
2019-03-19T04:11:02.078Z,99.90
2019-03-19T04:13:31.893Z,99.90
2019-03-19T04:16:01.798Z,99.90
2019-03-19T04:18:31.622Z,99.90
2019-03-19T04:21:01.527Z,99.90
2019-03-19T04:23:32.567Z,99.90
2019-03-19T04:26:02.731Z,99.90
2019-03-19T04:28:32.839Z,99.90
2019-03-19T04:31:02.625Z,99.90
2019-03-19T04:33:32.362Z,99.90
2019-03-19T04:36:02.269Z,99.90
2019-03-19T04:38:32.170Z,99.90
2019-03-19T04:41:02.087Z,99.90
2019-03-19T04:43:32.202Z,99.90
2019-03-19T04:46:02.176Z,99.90
2019-03-19T04:48:32.110Z,99.90
2019-03-19T04:51:02.294Z,99.90
2019-03-19T04:53:32.136Z,99.90
2019-03-19T04:56:01.865Z,99.90
2019-03-19T04:58:31.601Z,99.90
2019-03-19T05:01:01.349Z,99.90
2019-03-19T05:03:31.098Z,99.90
2019-03-19T05:06:00.867Z,99.90
2019-03-19T05:08:30.698Z,99.90
2019-03-19T05:11:00.442Z,99.90
2019-03-19T05:13:30.187Z,99.90
2019-03-19T05:16:01.193Z,99.90
2019-03-19T05:18:31.568Z,99.90
2019-03-19T05:21:01.394Z,99.90
2019-03-19T05:23:31.218Z,99.90
2019-03-19T05:26:00.989Z,99.90
2019-03-19T05:28:30.733Z,99.90
2019-03-19T05:31:00.485Z,99.90
2019-03-19T05:33:30.282Z,99.90
2019-03-19T05:36:00.058Z,99.90
2019-03-19T05:38:30.141Z,99.90
2019-03-19T05:40:59.993Z,99.90
2019-03-19T05:43:29.849Z,99.90
2019-03-19T05:45:59.681Z,99.90
2019-03-19T05:48:29.443Z,99.90
2019-03-19T05:50:59.185Z,99.90
2019-03-19T05:53:29.194Z,99.90
2019-03-19T05:55:58.929Z,99.90
2019-03-19T05:58:28.751Z,99.90
2019-03-19T06:00:58.565Z,99.90
2019-03-19T06:03:29.806Z,99.90
2019-03-19T06:05:59.620Z,99.90
2019-03-19T06:08:30.012Z,99.90
2019-03-19T06:10:59.753Z,99.90
2019-03-19T06:13:30.184Z,99.90
2019-03-19T06:16:00.443Z,99.90
2019-03-19T06:18:35.204Z,99.90
2019-03-19T06:21:07.433Z,99.90
2019-03-19T06:23:37.271Z,99.90
2019-03-19T06:26:07.682Z,99.90
2019-03-19T06:28:38.405Z,99.90
2019-03-19T06:31:09.593Z,99.90
2019-03-19T06:33:39.307Z,99.90
2019-03-19T06:36:09.127Z,99.90
2019-03-19T06:38:39.839Z,99.90
2019-03-19T06:41:09.585Z,99.90
2019-03-19T06:43:39.572Z,99.90
2019-03-19T06:46:09.392Z,99.90
2019-03-19T06:48:39.117Z,99.90
2019-03-19T06:51:08.869Z,99.90
2019-03-19T06:53:38.606Z,99.90
2019-03-19T06:56:08.610Z,99.90
2019-03-19T06:58:38.421Z,99.90
2019-03-19T07:01:08.241Z,99.90
2019-03-19T07:03:37.982Z,99.90
2019-03-19T07:06:09.158Z,99.90
2019-03-19T07:08:38.902Z,99.90
2019-03-19T07:11:08.894Z,99.90
2019-03-19T07:13:38.953Z,99.90
2019-03-19T07:16:08.821Z,99.90
2019-03-19T07:18:38.622Z,99.90
2019-03-19T07:21:08.610Z,99.90
2019-03-19T07:23:38.895Z,99.90
2019-03-19T07:26:09.039Z,99.90
2019-03-19T07:28:38.895Z,99.90
2019-03-19T07:31:08.642Z,99.90
2019-03-19T07:33:38.646Z,99.90
2019-03-19T07:36:08.390Z,99.90
2019-03-19T07:38:38.773Z,99.90
2019-03-19T07:41:08.581Z,99.90
2019-03-19T07:43:38.724Z,99.90
2019-03-19T07:46:08.653Z,99.90
2019-03-19T07:48:38.499Z,99.90
2019-03-19T07:51:08.230Z,99.90
2019-03-19T07:53:38.430Z,99.90
2019-03-19T07:56:08.162Z,99.90
2019-03-19T07:58:45.121Z,99.90
2019-03-19T08:01:09.350Z,99.90
2019-03-19T08:03:41.054Z,99.90
2019-03-19T08:06:10.786Z,99.90
2019-03-19T08:08:40.529Z,99.90
2019-03-19T08:11:10.279Z,99.90
2019-03-19T08:13:40.124Z,99.90
2019-03-19T08:16:09.947Z,99.90
2019-03-19T08:18:39.795Z,99.90
2019-03-19T08:21:09.693Z,99.90
2019-03-19T08:23:39.445Z,98.50
2019-03-19T08:26:09.254Z,98.00
2019-03-19T08:28:39.278Z,93.60
2019-03-19T08:31:09.110Z,90.60
2019-03-19T08:33:38.869Z,94.70
2019-03-19T08:36:09.510Z,94.50
2019-03-19T08:38:39.456Z,96.20
2019-03-19T08:41:09.290Z,88.00
2019-03-19T08:43:39.037Z,84.40
2019-03-19T08:46:08.791Z,83.10
2019-03-19T08:48:38.606Z,81.70
2019-03-19T08:51:08.605Z,87.10
2019-03-19T08:53:38.420Z,85.20
2019-03-19T08:56:08.171Z,90.60
2019-03-19T08:58:38.377Z,83.30
2019-03-19T09:01:08.308Z,76.00
2019-03-19T09:03:38.131Z,77.60
2019-03-19T09:06:07.946Z,86.10
2019-03-19T09:08:37.770Z,89.40
2019-03-19T09:11:08.090Z,75.80
2019-03-19T09:13:37.926Z,78.50
2019-03-19T09:16:08.164Z,78.70
2019-03-19T09:18:38.024Z,81.40
2019-03-19T09:21:07.962Z,68.90
2019-03-19T09:23:38.230Z,65.50
2019-03-19T09:26:09.050Z,70.50
2019-03-19T09:28:38.953Z,70.20
2019-03-19T09:31:09.133Z,76.80
2019-03-19T09:33:39.161Z,80.60
2019-03-19T09:36:09.012Z,84.90
2019-03-19T09:38:38.890Z,78.70
2019-03-19T09:41:08.785Z,80.90
2019-03-19T09:43:38.556Z,94.30
2019-03-19T09:46:08.356Z,88.30
2019-03-19T09:48:38.101Z,80.90
2019-03-19T09:51:07.910Z,81.60
2019-03-19T09:53:37.662Z,88.00
2019-03-19T09:56:07.407Z,81.70
2019-03-19T09:58:37.409Z,71.60
2019-03-19T10:01:07.323Z,65.90
2019-03-19T10:03:37.066Z,69.30
2019-03-19T10:06:13.822Z,85.00
2019-03-19T10:08:38.330Z,92.90
2019-03-19T10:11:08.237Z,95.00
2019-03-19T10:13:38.041Z,99.90
2019-03-19T10:16:07.889Z,99.90
2019-03-19T10:18:37.681Z,99.90
2019-03-19T10:21:07.498Z,99.90
2019-03-19T10:23:37.313Z,99.90
2019-03-19T10:26:07.062Z,99.90
2019-03-19T10:28:36.805Z,99.90
2019-03-19T10:31:06.634Z,99.90
2019-03-19T10:33:36.701Z,94.60
2019-03-19T10:36:06.607Z,84.90
2019-03-19T10:38:36.346Z,71.70
2019-03-19T10:41:06.102Z,78.10
2019-03-19T10:43:35.850Z,80.50
2019-03-19T10:46:05.998Z,81.70
2019-03-19T10:48:35.738Z,81.10
2019-03-19T10:51:05.631Z,90.70
2019-03-19T10:53:35.630Z,84.20
2019-03-19T10:56:05.782Z,81.80
2019-03-19T10:58:36.031Z,88.00
2019-03-19T11:01:05.926Z,84.40
2019-03-19T11:03:35.731Z,87.30
2019-03-19T11:06:05.650Z,84.90
2019-03-19T11:08:35.858Z,90.00
2019-03-19T11:11:06.073Z,92.70
2019-03-19T11:13:36.042Z,94.10
2019-03-19T11:16:06.212Z,94.40
2019-03-19T11:18:35.954Z,92.30
2019-03-19T11:21:06.023Z,95.70
2019-03-19T11:23:35.931Z,94.50
2019-03-19T11:26:05.802Z,96.20
2019-03-19T11:28:35.634Z,94.60
2019-03-19T11:31:05.466Z,91.30
2019-03-19T11:33:35.278Z,92.90
2019-03-19T11:36:05.190Z,93.20
2019-03-19T11:38:35.185Z,94.00
2019-03-19T11:41:07.177Z,95.20
2019-03-19T11:43:36.689Z,96.80
2019-03-19T11:46:06.707Z,93.00
2019-03-19T11:48:36.526Z,94.70
2019-03-19T11:51:06.335Z,94.50
2019-03-19T11:53:36.068Z,98.00
2019-03-19T11:56:06.213Z,97.60
2019-03-19T11:58:35.962Z,95.70
2019-03-19T12:01:05.970Z,87.80
2019-03-19T12:03:35.784Z,73.20
2019-03-19T12:06:05.683Z,68.00
2019-03-19T12:08:35.426Z,65.40
2019-03-19T12:11:05.324Z,65.70
2019-03-19T12:13:35.087Z,71.10
2019-03-19T12:16:04.990Z,67.10
2019-03-19T12:18:34.734Z,77.10
2019-03-19T12:21:04.895Z,79.40
2019-03-19T12:23:34.702Z,86.10
2019-03-19T12:26:04.563Z,86.10
2019-03-19T12:28:39.687Z,88.30
2019-03-19T12:31:05.900Z,84.30
2019-03-19T12:33:41.041Z,88.30
2019-03-19T12:36:08.503Z,81.20
2019-03-19T12:38:38.495Z,75.60
2019-03-19T12:41:08.241Z,68.70
2019-03-19T12:43:37.979Z,55.30
2019-03-19T12:46:07.803Z,48.50
2019-03-19T12:48:37.797Z,47.70
2019-03-19T12:51:07.562Z,50.10
2019-03-19T12:53:37.305Z,48.50
2019-03-19T12:56:07.121Z,48.50
2019-03-19T12:58:36.857Z,52.30
2019-03-19T13:01:06.894Z,57.90
2019-03-19T13:03:36.679Z,62.00
2019-03-19T13:06:06.502Z,66.80
2019-03-19T13:08:37.207Z,68.80
2019-03-19T13:11:07.278Z,72.10
2019-03-19T13:13:37.265Z,78.50
2019-03-19T13:16:07.101Z,79.00
2019-03-19T13:18:36.867Z,73.70
2019-03-19T13:21:06.884Z,74.10
2019-03-19T13:23:36.797Z,69.70
2019-03-19T13:26:06.758Z,71.00
2019-03-19T13:28:36.787Z,71.00
2019-03-19T13:31:06.784Z,67.10
2019-03-19T13:33:36.679Z,67.40
2019-03-19T13:36:06.747Z,70.60
2019-03-19T13:38:36.901Z,73.40
2019-03-19T13:41:06.717Z,79.20
2019-03-19T13:43:36.534Z,86.30
2019-03-19T13:46:06.323Z,85.70
2019-03-19T13:48:36.134Z,85.80
2019-03-19T13:51:06.125Z,85.60
2019-03-19T13:53:35.953Z,90.00
2019-03-19T13:56:05.786Z,93.00
2019-03-19T13:58:35.598Z,92.50
2019-03-19T14:01:05.649Z,93.10
2019-03-19T14:03:35.464Z,93.70
2019-03-19T14:06:05.374Z,89.00
2019-03-19T14:08:35.151Z,72.00
2019-03-19T14:11:05.137Z,63.70
2019-03-19T14:13:34.881Z,60.30
2019-03-19T14:16:04.800Z,62.80
2019-03-19T14:18:34.550Z,68.30
2019-03-19T14:21:04.459Z,71.80
2019-03-19T14:23:34.350Z,67.70
2019-03-19T14:26:04.281Z,78.30
2019-03-19T14:28:34.436Z,71.90
2019-03-19T14:31:08.964Z,64.30
2019-03-19T14:33:35.923Z,60.90
2019-03-19T14:36:05.818Z,60.80
2019-03-19T14:38:46.499Z,61.80
2019-03-19T14:41:07.353Z,58.10
2019-03-19T14:43:37.119Z,56.20
2019-03-19T14:46:07.026Z,57.80
2019-03-19T14:48:36.765Z,58.90
2019-03-19T14:51:06.583Z,52.60
2019-03-19T14:53:36.791Z,54.60
2019-03-19T14:56:06.824Z,52.70
2019-03-19T14:58:36.722Z,53.50
2019-03-19T15:01:06.733Z,54.60
2019-03-19T15:03:36.725Z,53.60
2019-03-19T15:06:06.579Z,55.50
2019-03-19T15:08:36.455Z,55.10
2019-03-19T15:11:06.502Z,52.30
2019-03-19T15:13:36.392Z,52.10
2019-03-19T15:16:06.342Z,53.30
2019-03-19T15:18:36.209Z,53.10
2019-03-19T15:21:06.273Z,53.80
2019-03-19T15:23:36.504Z,59.10
2019-03-19T15:26:07.069Z,57.80
2019-03-19T15:28:37.110Z,53.90
2019-03-19T15:31:07.527Z,54.00
2019-03-19T15:33:37.773Z,53.60
2019-03-19T15:36:07.779Z,53.60
2019-03-19T15:38:37.884Z,52.70
2019-03-19T15:41:08.001Z,52.90
2019-03-19T15:43:37.983Z,53.20
2019-03-19T15:46:07.790Z,54.40
2019-03-19T15:48:37.657Z,57.30
2019-03-19T15:51:07.887Z,60.60
2019-03-19T15:53:37.813Z,66.00
2019-03-19T15:56:07.873Z,64.30
2019-03-19T15:58:37.712Z,62.80
2019-03-19T16:01:07.750Z,65.60
2019-03-19T16:03:37.678Z,67.90
2019-03-19T16:06:07.517Z,69.80
2019-03-19T16:08:37.282Z,72.00
2019-03-19T16:11:07.114Z,76.90
2019-03-19T16:13:37.177Z,77.80
2019-03-19T16:16:07.397Z,81.90
2019-03-19T16:18:37.322Z,82.20
2019-03-19T16:21:07.098Z,86.90
2019-03-19T16:23:37.079Z,89.80
2019-03-19T16:26:07.178Z,89.80
2019-03-19T16:28:37.418Z,89.50
2019-03-19T16:31:07.462Z,92.30
2019-03-19T16:33:37.198Z,92.20
2019-03-19T16:36:07.065Z,93.40
2019-03-19T16:38:37.085Z,92.10
2019-03-19T16:41:07.577Z,93.00
2019-03-19T16:43:37.547Z,92.50
2019-03-19T16:46:07.779Z,92.60
2019-03-19T16:48:37.889Z,92.60
2019-03-19T16:51:07.822Z,93.00
2019-03-19T16:53:38.158Z,94.10
2019-03-19T16:56:08.035Z,93.80
2019-03-19T16:58:38.187Z,94.10
2019-03-19T17:01:08.506Z,95.20
2019-03-19T17:03:38.603Z,96.80
2019-03-19T17:06:08.433Z,96.40
2019-03-19T17:08:38.602Z,98.70
2019-03-19T17:11:08.625Z,99.90
2019-03-19T17:13:38.534Z,99.90
2019-03-19T17:16:08.299Z,99.90
2019-03-19T17:18:38.346Z,99.90
2019-03-19T17:21:08.247Z,99.90
2019-03-19T17:23:38.174Z,99.90
2019-03-19T17:26:08.409Z,99.90
2019-03-19T17:28:38.417Z,99.90
2019-03-19T17:31:08.354Z,99.90
2019-03-19T17:33:38.196Z,99.90
2019-03-19T17:36:08.454Z,99.90
2019-03-19T17:38:39.249Z,99.90
2019-03-19T17:41:10.149Z,99.90
2019-03-19T17:43:40.188Z,99.90
2019-03-19T17:46:11.173Z,99.90
2019-03-19T17:48:41.117Z,99.90
2019-03-19T17:51:11.050Z,99.90
2019-03-19T17:53:40.927Z,99.90
2019-03-19T17:56:10.758Z,99.90
2019-03-19T17:58:40.908Z,99.90
2019-03-19T18:01:17.367Z,99.90
2019-03-19T18:03:42.277Z,99.90
2019-03-19T18:06:12.254Z,99.90
2019-03-19T18:08:42.233Z,99.90
2019-03-19T18:11:12.620Z,99.90
2019-03-19T18:13:42.720Z,99.90
2019-03-19T18:16:12.799Z,99.90
2019-03-19T18:18:42.754Z,99.90
2019-03-19T18:21:12.855Z,99.90
2019-03-19T18:23:42.941Z,99.90
2019-03-19T18:26:12.973Z,99.90
2019-03-19T18:28:42.910Z,99.90
2019-03-19T18:31:13.024Z,99.90
2019-03-19T18:33:42.894Z,99.90
2019-03-19T18:36:12.851Z,99.90
2019-03-19T18:38:43.015Z,99.90
2019-03-19T18:41:12.790Z,99.90
2019-03-19T18:43:42.587Z,99.90
2019-03-19T18:46:12.503Z,99.90
2019-03-19T18:48:42.248Z,99.90
2019-03-19T18:51:12.565Z,99.90
2019-03-19T18:53:42.394Z,99.90
2019-03-19T18:56:16.706Z,99.90
2019-03-19T18:58:46.512Z,99.90
2019-03-19T19:01:16.329Z,99.90
2019-03-19T19:03:46.122Z,99.90
2019-03-19T19:06:16.198Z,99.90
2019-03-19T19:08:46.067Z,99.90
2019-03-19T19:11:16.000Z,99.90
2019-03-19T19:13:45.781Z,99.90
2019-03-19T19:16:15.847Z,99.90
2019-03-19T19:18:45.605Z,99.90
2019-03-19T19:21:15.522Z,99.90
2019-03-19T19:23:45.380Z,99.90
2019-03-19T19:26:15.241Z,99.90
2019-03-19T19:28:45.122Z,99.90
2019-03-19T19:31:14.973Z,99.90
2019-03-19T19:33:44.858Z,99.90
2019-03-19T19:36:14.701Z,99.90
2019-03-19T19:38:44.644Z,99.90
2019-03-19T19:41:16.022Z,99.90
2019-03-19T19:43:45.897Z,99.90
2019-03-19T19:46:15.705Z,99.90
2019-03-19T19:48:45.619Z,99.90
2019-03-19T19:51:15.515Z,99.90
2019-03-19T19:53:45.346Z,99.90
2019-03-19T19:56:15.168Z,99.90
2019-03-19T19:58:44.950Z,99.90
2019-03-19T20:01:15.136Z,99.90
2019-03-19T20:03:45.218Z,99.90
2019-03-19T20:06:15.054Z,99.90
2019-03-19T20:08:45.581Z,99.90
2019-03-19T20:11:15.486Z,99.90
2019-03-19T20:13:45.419Z,99.90
2019-03-19T20:16:16.231Z,99.90
2019-03-19T20:18:46.206Z,99.90
2019-03-19T20:21:17.775Z,99.90
2019-03-19T20:23:49.673Z,99.90
2019-03-19T20:26:20.146Z,99.90
2019-03-19T20:28:50.109Z,99.90
2019-03-19T20:31:19.955Z,99.90
2019-03-19T20:33:53.271Z,99.90
2019-03-19T20:36:23.074Z,99.90
2019-03-19T20:38:53.511Z,99.90
2019-03-19T20:41:23.265Z,99.90
2019-03-19T20:43:53.157Z,99.90
2019-03-19T20:46:23.198Z,99.90
2019-03-19T20:48:53.356Z,99.90
2019-03-19T20:51:23.400Z,99.90
2019-03-19T20:53:53.378Z,99.90
2019-03-19T20:56:23.590Z,99.90
2019-03-19T20:58:54.438Z,99.90
2019-03-19T21:01:24.317Z,99.90
2019-03-19T21:03:55.508Z,99.90
2019-03-19T21:06:25.510Z,99.90
2019-03-19T21:08:56.015Z,99.90
2019-03-19T21:11:26.327Z,99.90
2019-03-19T21:13:56.218Z,99.90
2019-03-19T21:16:26.040Z,99.90
2019-03-19T21:18:56.202Z,99.90
2019-03-19T21:21:25.958Z,99.90
2019-03-19T21:23:55.709Z,99.90
2019-03-19T21:26:25.804Z,99.90
2019-03-19T21:28:55.827Z,99.90
2019-03-19T21:31:26.549Z,99.90
2019-03-19T21:33:56.385Z,99.90
2019-03-19T21:36:26.282Z,99.90
2019-03-19T21:38:56.158Z,99.90
2019-03-19T21:41:25.910Z,99.90
2019-03-19T21:43:56.189Z,99.90
2019-03-19T21:46:26.125Z,99.90
2019-03-19T21:48:55.958Z,99.90
2019-03-19T21:51:25.774Z,99.90
2019-03-19T21:53:55.525Z,99.90
2019-03-19T21:56:25.838Z,99.90
2019-03-19T21:58:55.590Z,99.90
2019-03-19T22:01:25.490Z,99.90
2019-03-19T22:04:03.133Z,99.90
2019-03-19T22:06:26.865Z,99.90
2019-03-19T22:08:56.602Z,99.90
2019-03-19T22:11:27.529Z,99.90
2019-03-19T22:13:57.266Z,99.90
2019-03-19T22:16:27.022Z,99.90
2019-03-19T22:18:56.766Z,99.90
2019-03-19T22:21:26.650Z,99.90
2019-03-19T22:23:56.636Z,99.90
2019-03-19T22:26:26.537Z,99.90
2019-03-19T22:28:56.274Z,99.90
2019-03-19T22:31:26.095Z,99.90
2019-03-19T22:33:55.931Z,99.90
2019-03-19T22:36:25.748Z,99.90
2019-03-19T22:38:55.776Z,99.90
2019-03-19T22:41:25.577Z,99.90
2019-03-19T22:43:55.305Z,99.90
2019-03-19T22:46:25.049Z,99.90
2019-03-19T22:48:54.793Z,99.90
2019-03-19T22:51:24.558Z,99.90
2019-03-19T22:53:54.297Z,99.90
2019-03-19T22:56:24.408Z,99.90
2019-03-19T22:58:54.342Z,99.90
2019-03-19T23:01:24.401Z,99.90
2019-03-19T23:03:54.594Z,99.90
2019-03-19T23:06:24.559Z,99.90
2019-03-19T23:08:55.429Z,99.90
2019-03-19T23:11:25.645Z,99.90
2019-03-19T23:13:55.669Z,99.90
2019-03-19T23:16:25.479Z,99.90
2019-03-19T23:18:55.370Z,99.90
2019-03-19T23:21:25.270Z,99.90
2019-03-19T23:23:55.351Z,99.90
2019-03-19T23:26:25.241Z,99.90
2019-03-19T23:28:55.395Z,99.90
2019-03-19T23:31:25.406Z,99.90
2019-03-19T23:33:55.487Z,99.90
2019-03-19T23:36:25.234Z,99.90
2019-03-19T23:38:54.983Z,99.90
2019-03-19T23:41:25.075Z,99.90
2019-03-19T23:43:54.885Z,99.90
2019-03-19T23:46:24.646Z,99.90
2019-03-19T23:48:54.642Z,99.90
2019-03-19T23:51:24.414Z,99.90
2019-03-19T23:53:54.145Z,99.90
2019-03-19T23:56:23.997Z,99.90
2019-03-19T23:58:53.754Z,99.90
